createdAt,value
2022-11-01T00:00:26.146Z,938.02
2022-11-01T00:01:26.765Z,938.06
2022-11-01T00:02:27.073Z,938.05
2022-11-01T00:03:27.607Z,938.08
2022-11-01T00:04:28.521Z,938.12
2022-11-01T00:05:29.028Z,938.1
2022-11-01T00:06:29.524Z,938.07
2022-11-01T00:07:30.014Z,938.05
2022-11-01T00:08:30.217Z,938.05
2022-11-01T00:09:30.816Z,938.06
2022-11-01T00:10:31.741Z,938.02
2022-11-01T00:11:32.477Z,938.08
2022-11-01T00:12:33.085Z,938.05
2022-11-01T00:13:33.274Z,938.06
2022-11-01T00:14:33.904Z,938.12
2022-11-01T00:15:34.109Z,938.05
2022-11-01T00:16:35.043Z,938.05
2022-11-01T00:17:35.950Z,938.03
2022-11-01T00:18:36.455Z,938.06
2022-11-01T00:19:37.374Z,938.06
2022-11-01T00:20:37.596Z,938.04
2022-11-01T00:21:38.356Z,938.05
2022-11-01T00:22:39.265Z,938.1
2022-11-01T00:23:40.177Z,938.09
2022-11-01T00:24:40.808Z,938.04
2022-11-01T00:25:41.819Z,938.06
2022-11-01T00:26:42.811Z,938.09
2022-11-01T00:27:43.152Z,938.11
2022-11-01T00:28:43.477Z,938.08
2022-11-01T00:29:44.385Z,938.05
2022-11-01T00:30:45.260Z,938.07
2022-11-01T00:31:46.119Z,938.03
2022-11-01T00:32:46.594Z,938.11
2022-11-01T00:33:46.790Z,938.1
2022-11-01T00:34:46.998Z,938.1
2022-11-01T00:35:47.629Z,938.1
2022-11-01T00:36:48.208Z,938.13
2022-11-01T00:37:48.830Z,938.1
2022-11-01T00:38:49.022Z,938.1
2022-11-01T00:39:49.928Z,938.09
2022-11-01T00:40:50.841Z,938.11
2022-11-01T00:41:51.576Z,938.14
2022-11-01T00:42:52.475Z,938.11
2022-11-01T00:43:53.434Z,938.15
2022-11-01T00:44:54.337Z,938.18
2022-11-01T00:45:55.236Z,938.17
2022-11-01T00:46:55.451Z,938.15
2022-11-01T00:47:56.059Z,938.13
2022-11-01T00:48:56.863Z,938.15
2022-11-01T00:49:57.858Z,938.18
2022-11-01T00:50:58.057Z,938.16
2022-11-01T00:51:58.664Z,938.14
2022-11-01T00:52:59.553Z,938.13
2022-11-01T00:54:00.446Z,938.11
2022-11-01T00:55:01.342Z,938.08
2022-11-01T00:56:02.253Z,938.09
2022-11-01T00:57:03.158Z,938.13
2022-11-01T00:58:04.349Z,938.13
2022-11-01T00:59:04.499Z,938.12
2022-11-01T01:00:04.989Z,938.15
2022-11-01T01:01:05.773Z,938.18
2022-11-01T01:02:06.722Z,938.15
2022-11-01T01:03:07.386Z,938.18
2022-11-01T01:04:07.609Z,938.16
2022-11-01T01:05:08.521Z,938.21
2022-11-01T01:06:09.164Z,938.16
2022-11-01T01:07:09.385Z,938.2
2022-11-01T01:08:09.670Z,938.19
2022-11-01T01:09:10.287Z,938.16
2022-11-01T01:10:11.196Z,938.14
2022-11-01T01:11:11.810Z,938.16
2022-11-01T01:12:12.516Z,938.15
2022-11-01T01:13:12.854Z,938.1
2022-11-01T01:14:13.168Z,938.11
2022-11-01T01:15:14.129Z,938.12
2022-11-01T01:16:15.022Z,938.12
2022-11-01T01:17:16.081Z,938.1
2022-11-01T01:18:16.342Z,938.15
2022-11-01T01:19:17.283Z,938.11
2022-11-01T01:20:17.900Z,938.05
2022-11-01T01:21:18.520Z,938.06
2022-11-01T01:22:19.327Z,938.1
2022-11-01T01:23:19.934Z,938.09
2022-11-01T01:24:20.831Z,938.06
2022-11-01T01:25:21.453Z,938.12
2022-11-01T01:26:22.368Z,938.09
2022-11-01T01:27:23.008Z,938.09
2022-11-01T01:28:23.921Z,938.08
2022-11-01T01:29:24.035Z,938.06
2022-11-01T01:30:24.942Z,938.03
2022-11-01T01:31:25.437Z,938
2022-11-01T01:32:26.480Z,938.06
2022-11-01T01:33:27.385Z,938
2022-11-01T01:34:28.056Z,938.04
2022-11-01T01:35:28.688Z,937.97
2022-11-01T01:36:28.891Z,938.05
2022-11-01T01:37:29.099Z,938.04
2022-11-01T01:38:30.030Z,938.04
2022-11-01T01:39:30.945Z,938.04
2022-11-01T01:40:31.557Z,938.03
2022-11-01T01:41:31.769Z,938.03
2022-11-01T01:42:32.203Z,938.04
2022-11-01T01:43:32.816Z,938.03
2022-11-01T01:44:33.434Z,938
2022-11-01T01:45:34.333Z,937.97
2022-11-01T01:46:34.523Z,937.96
2022-11-01T01:47:35.155Z,937.98
2022-11-01T01:48:36.052Z,937.94
2022-11-01T01:49:37.562Z,938.01
2022-11-01T01:50:37.079Z,937.99
2022-11-01T01:51:37.277Z,937.98
2022-11-01T01:52:37.992Z,938
2022-11-01T01:53:38.232Z,937.94
2022-11-01T01:54:39.118Z,937.91
2022-11-01T01:55:40.015Z,937.9
2022-11-01T01:56:40.932Z,937.95
2022-11-01T01:57:41.557Z,937.96
2022-11-01T01:58:41.735Z,938
2022-11-01T01:59:42.220Z,937.95
2022-11-01T02:00:43.168Z,937.92
2022-11-01T02:01:43.755Z,937.94
2022-11-01T02:02:44.133Z,937.97
2022-11-01T02:03:44.465Z,937.99
2022-11-01T02:04:45.119Z,937.92
2022-11-01T02:05:45.450Z,937.92
2022-11-01T02:06:45.656Z,937.95
2022-11-01T02:07:46.168Z,937.92
2022-11-01T02:08:46.521Z,937.89
2022-11-01T02:09:47.435Z,937.92
2022-11-01T02:10:48.341Z,937.9
2022-11-01T02:11:49.237Z,937.93
2022-11-01T02:12:50.072Z,937.96
2022-11-01T02:13:50.273Z,937.95
2022-11-01T02:14:51.202Z,937.92
2022-11-01T02:15:51.684Z,937.91
2022-11-01T02:16:52.602Z,937.9
2022-11-01T02:17:53.659Z,937.93
2022-11-01T02:18:53.741Z,937.97
2022-11-01T02:19:54.688Z,937.96
2022-11-01T02:20:55.300Z,937.99
2022-11-01T02:21:55.502Z,938.02
2022-11-01T02:22:56.564Z,938.04
2022-11-01T02:23:57.487Z,938.05
2022-11-01T02:24:57.675Z,938.01
2022-11-01T02:25:58.595Z,938.05
2022-11-01T02:26:58.938Z,938.06
2022-11-01T02:27:59.142Z,938.1
2022-11-01T02:29:01.686Z,938.12
2022-11-01T02:30:00.170Z,938.12
2022-11-01T02:31:01.089Z,938.13
2022-11-01T02:32:01.412Z,938.19
2022-11-01T02:33:02.095Z,938.22
2022-11-01T02:34:02.191Z,938.24
2022-11-01T02:35:02.406Z,938.24
2022-11-01T02:36:03.347Z,938.27
2022-11-01T02:37:03.563Z,938.24
2022-11-01T02:38:04.500Z,938.23
2022-11-01T02:39:05.465Z,938.18
2022-11-01T02:40:05.697Z,938.16
2022-11-01T02:41:06.610Z,938.1
2022-11-01T02:42:07.519Z,938.1
2022-11-01T02:43:07.915Z,938.09
2022-11-01T02:44:08.831Z,938.11
2022-11-01T02:45:09.447Z,938.11
2022-11-01T02:46:10.358Z,938.16
2022-11-01T02:47:10.567Z,938.16
2022-11-01T02:48:11.482Z,938.13
2022-11-01T02:49:12.083Z,938.19
2022-11-01T02:50:12.984Z,938.19
2022-11-01T02:51:13.898Z,938.24
2022-11-01T02:52:14.519Z,938.28
2022-11-01T02:53:14.837Z,938.28
2022-11-01T02:54:15.469Z,938.33
2022-11-01T02:55:16.173Z,938.35
2022-11-01T02:56:17.162Z,938.37
2022-11-01T02:57:17.935Z,938.39
2022-11-01T02:58:18.124Z,938.39
2022-11-01T02:59:18.333Z,938.42
2022-11-01T03:00:19.267Z,938.47
2022-11-01T03:01:19.571Z,938.44
2022-11-01T03:02:20.144Z,938.43
2022-11-01T03:03:21.158Z,938.45
2022-11-01T03:04:22.063Z,938.52
2022-11-01T03:05:22.986Z,938.51
2022-11-01T03:06:23.875Z,938.52
2022-11-01T03:07:24.502Z,938.52
2022-11-01T03:08:25.440Z,938.54
2022-11-01T03:09:26.347Z,938.5
2022-11-01T03:10:26.834Z,938.5
2022-11-01T03:11:27.751Z,938.53
2022-11-01T03:13:29.451Z,938.52
2022-11-01T03:14:29.659Z,938.59
2022-11-01T03:15:30.147Z,938.65
2022-11-01T03:16:30.783Z,938.62
2022-11-01T03:17:31.116Z,938.65
2022-11-01T03:18:31.769Z,938.68
2022-11-01T03:19:31.963Z,938.67
2022-11-01T03:20:32.879Z,938.7
2022-11-01T03:21:33.764Z,938.69
2022-11-01T03:22:34.263Z,938.66
2022-11-01T03:23:35.280Z,938.71
2022-11-01T03:24:35.658Z,938.73
2022-11-01T03:25:36.557Z,938.75
2022-11-01T03:26:37.197Z,938.78
2022-11-01T03:27:37.810Z,938.79
2022-11-01T03:28:38.455Z,938.83
2022-11-01T03:29:39.337Z,938.79
2022-11-01T03:30:39.542Z,938.81
2022-11-01T03:31:40.482Z,938.82
2022-11-01T03:32:40.671Z,938.81
2022-11-01T03:33:41.688Z,938.79
2022-11-01T03:34:41.873Z,938.79
2022-11-01T03:35:42.795Z,938.79
2022-11-01T03:36:43.135Z,938.81
2022-11-01T03:37:43.627Z,938.8
2022-11-01T03:38:44.568Z,938.8
2022-11-01T03:39:44.755Z,938.83
2022-11-01T03:40:44.937Z,938.82
2022-11-01T03:41:45.829Z,938.8
2022-11-01T03:42:46.452Z,938.78
2022-11-01T03:43:47.330Z,938.8
2022-11-01T03:44:47.824Z,938.8
2022-11-01T03:45:48.716Z,938.81
2022-11-01T03:46:49.054Z,938.78
2022-11-01T03:47:49.971Z,938.78
2022-11-01T03:48:50.732Z,938.83
2022-11-01T03:49:51.063Z,938.87
2022-11-01T03:50:51.283Z,938.85
2022-11-01T03:51:51.476Z,938.91
2022-11-01T03:52:52.402Z,938.91
2022-11-01T03:53:52.699Z,938.94
2022-11-01T03:54:53.679Z,938.93
2022-11-01T03:55:54.441Z,939.03
2022-11-01T03:56:54.769Z,938.95
2022-11-01T03:57:55.789Z,938.93
2022-11-01T03:58:56.742Z,938.9
2022-11-01T03:59:57.657Z,938.98
2022-11-01T04:00:58.590Z,938.95
2022-11-01T04:01:58.927Z,938.97
2022-11-01T04:02:59.341Z,938.96
2022-11-01T04:03:59.515Z,938.92
2022-11-01T04:05:00.423Z,938.93
2022-11-01T04:06:00.919Z,938.88
2022-11-01T04:07:01.406Z,938.88
2022-11-01T04:08:02.331Z,938.86
2022-11-01T04:09:02.855Z,938.85
2022-11-01T04:10:03.747Z,938.84
2022-11-01T04:11:03.954Z,938.81
2022-11-01T04:12:04.602Z,938.82
2022-11-01T04:13:05.933Z,938.77
2022-11-01T04:14:06.571Z,938.8
2022-11-01T04:15:07.482Z,938.81
2022-11-01T04:16:08.397Z,938.85
2022-11-01T04:17:09.305Z,938.82
2022-11-01T04:18:09.511Z,938.87
2022-11-01T04:19:10.272Z,938.87
2022-11-01T04:20:10.752Z,938.9
2022-11-01T04:21:11.266Z,938.96
2022-11-01T04:22:11.495Z,939.01
2022-11-01T04:23:12.527Z,939.05
2022-11-01T04:24:13.566Z,939.07
2022-11-01T04:25:14.477Z,939.08
2022-11-01T04:26:14.980Z,939.11
2022-11-01T04:27:15.186Z,939.1
2022-11-01T04:28:16.096Z,939.12
2022-11-01T04:29:16.282Z,939.07
2022-11-01T04:30:17.167Z,939.08
2022-11-01T04:31:17.376Z,939.07
2022-11-01T04:32:17.989Z,939.06
2022-11-01T04:33:18.304Z,939.07
2022-11-01T04:34:18.906Z,939.08
2022-11-01T04:35:19.524Z,939.08
2022-11-01T04:36:19.721Z,939.1
2022-11-01T04:37:20.043Z,939.15
2022-11-01T04:38:20.942Z,939.17
2022-11-01T04:39:21.875Z,939.2
2022-11-01T04:40:22.781Z,939.2
2022-11-01T04:41:23.116Z,939.19
2022-11-01T04:42:24.025Z,939.26
2022-11-01T04:43:24.660Z,939.27
2022-11-01T04:44:25.366Z,939.21
2022-11-01T04:45:26.278Z,939.27
2022-11-01T04:46:27.188Z,939.24
2022-11-01T04:47:27.393Z,939.29
2022-11-01T04:48:28.322Z,939.25
2022-11-01T04:49:28.696Z,939.3
2022-11-01T04:50:29.588Z,939.28
2022-11-01T04:51:29.815Z,939.29
2022-11-01T04:52:30.344Z,939.29
2022-11-01T04:53:30.564Z,939.28
2022-11-01T04:54:31.706Z,939.27
2022-11-01T04:55:31.890Z,939.28
2022-11-01T04:56:32.515Z,939.3
2022-11-01T04:57:32.695Z,939.31
2022-11-01T04:58:32.885Z,939.32
2022-11-01T04:59:33.838Z,939.33
2022-11-01T05:00:34.811Z,939.31
2022-11-01T05:01:35.727Z,939.34
2022-11-01T05:02:35.793Z,939.33
2022-11-01T05:03:35.980Z,939.32
2022-11-01T05:04:36.132Z,939.34
2022-11-01T05:05:36.328Z,939.35
2022-11-01T05:06:36.547Z,939.31
2022-11-01T05:07:37.457Z,939.31
2022-11-01T05:08:38.265Z,939.33
2022-11-01T05:09:39.199Z,939.3
2022-11-01T05:10:40.103Z,939.35
2022-11-01T05:11:40.998Z,939.34
2022-11-01T05:12:41.193Z,939.33
2022-11-01T05:13:41.397Z,939.35
2022-11-01T05:14:42.429Z,939.33
2022-11-01T05:15:59.475Z,939.31
2022-11-01T05:16:43.743Z,939.36
2022-11-01T05:17:44.636Z,939.36
2022-11-01T05:18:45.530Z,939.33
2022-11-01T05:19:45.793Z,939.3
2022-11-01T05:20:46.672Z,939.3
2022-11-01T05:21:47.346Z,939.32
2022-11-01T05:22:47.956Z,939.3
2022-11-01T05:23:48.320Z,939.35
2022-11-01T05:24:49.420Z,939.33
2022-11-01T05:25:50.318Z,939.39
2022-11-01T05:26:50.806Z,939.4
2022-11-01T05:27:51.711Z,939.41
2022-11-01T05:28:52.022Z,939.42
2022-11-01T05:29:53.078Z,939.4
2022-11-01T05:30:53.287Z,939.48
2022-11-01T05:31:53.487Z,939.48
2022-11-01T05:32:54.546Z,939.51
2022-11-01T05:33:54.879Z,939.56
2022-11-01T05:34:55.923Z,939.52
2022-11-01T05:35:56.396Z,939.52
2022-11-01T05:36:57.338Z,939.51
2022-11-01T05:37:58.250Z,939.53
2022-11-01T05:38:59.063Z,939.51
2022-11-01T05:40:00.033Z,939.5
2022-11-01T05:41:00.445Z,939.53
2022-11-01T05:42:02.615Z,939.51
2022-11-01T05:43:02.054Z,939.54
2022-11-01T05:44:01.894Z,939.57
2022-11-01T05:45:02.177Z,939.56
2022-11-01T05:46:03.093Z,939.56
2022-11-01T05:47:04.130Z,939.57
2022-11-01T05:48:04.496Z,939.55
2022-11-01T05:49:04.686Z,939.56
2022-11-01T05:50:05.628Z,939.55
2022-11-01T05:51:06.534Z,939.6
2022-11-01T05:52:07.485Z,939.63
2022-11-01T05:53:08.108Z,939.65
2022-11-01T05:54:08.319Z,939.62
2022-11-01T05:55:08.741Z,939.69
2022-11-01T05:56:09.656Z,939.71
2022-11-01T05:57:10.567Z,939.72
2022-11-01T05:58:11.477Z,939.7
2022-11-01T05:59:11.581Z,939.69
2022-11-01T06:00:12.621Z,939.7
2022-11-01T06:01:13.596Z,939.72
2022-11-01T06:02:14.307Z,939.78
2022-11-01T06:03:14.613Z,939.8
2022-11-01T06:04:15.231Z,939.82
2022-11-01T06:05:16.191Z,939.83
2022-11-01T06:06:16.517Z,939.85
2022-11-01T06:07:16.714Z,939.83
2022-11-01T06:08:17.629Z,939.88
2022-11-01T06:09:17.954Z,939.87
2022-11-01T06:10:18.164Z,939.92
2022-11-01T06:11:19.074Z,939.99
2022-11-01T06:12:20.097Z,939.89
2022-11-01T06:13:21.053Z,940
2022-11-01T06:14:21.371Z,940.01
2022-11-01T06:15:21.844Z,940
2022-11-01T06:16:21.944Z,940.04
2022-11-01T06:17:22.426Z,940.14
2022-11-01T06:18:22.779Z,940.09
2022-11-01T06:19:22.971Z,940.08
2022-11-01T06:20:23.184Z,940.13
2022-11-01T06:21:26.127Z,940.15
2022-11-01T06:22:24.444Z,940.22
2022-11-01T06:23:24.933Z,940.24
2022-11-01T06:24:25.439Z,940.23
2022-11-01T06:25:26.161Z,940.29
2022-11-01T06:26:26.375Z,940.32
2022-11-01T06:27:27.290Z,940.39
2022-11-01T06:28:27.604Z,940.42
2022-11-01T06:29:28.545Z,940.42
2022-11-01T06:30:29.464Z,940.48
2022-11-01T06:31:30.377Z,940.52
2022-11-01T06:32:30.567Z,940.53
2022-11-01T06:33:31.210Z,940.54
2022-11-01T06:34:31.860Z,940.52
2022-11-01T06:35:32.446Z,940.53
2022-11-01T06:36:33.343Z,940.57
2022-11-01T06:37:33.981Z,940.64
2022-11-01T06:38:34.294Z,940.64
2022-11-01T06:39:34.798Z,940.65
2022-11-01T06:40:35.003Z,940.69
2022-11-01T06:41:35.903Z,940.73
2022-11-01T06:42:36.394Z,940.69
2022-11-01T06:43:36.718Z,940.77
2022-11-01T06:44:37.334Z,940.78
2022-11-01T06:45:37.473Z,940.78
2022-11-01T06:46:38.084Z,940.8
2022-11-01T06:48:39.595Z,940.83
2022-11-01T06:49:39.786Z,940.84
2022-11-01T06:50:40.431Z,940.99
2022-11-01T06:51:41.338Z,940.86
2022-11-01T06:52:41.552Z,940.87
2022-11-01T06:53:42.188Z,940.89
2022-11-01T06:54:42.395Z,940.96
2022-11-01T06:55:42.713Z,940.93
2022-11-01T06:56:42.911Z,940.94
2022-11-01T06:57:43.411Z,940.98
2022-11-01T06:58:43.825Z,940.93
2022-11-01T06:59:44.017Z,940.96
2022-11-01T07:00:44.293Z,940.97
2022-11-01T07:01:44.990Z,940.98
2022-11-01T07:02:45.423Z,940.97
2022-11-01T07:03:45.800Z,940.96
2022-11-01T07:04:45.994Z,940.96
2022-11-01T07:05:46.465Z,940.99
2022-11-01T07:06:46.683Z,941.01
2022-11-01T07:07:47.590Z,940.99
2022-11-01T07:08:47.731Z,940.97
2022-11-01T07:09:47.962Z,940.97
2022-11-01T07:10:48.211Z,940.99
2022-11-01T07:11:48.695Z,941.07
2022-11-01T07:12:49.741Z,941
2022-11-01T07:13:50.636Z,941.08
2022-11-01T07:14:51.548Z,941.1
2022-11-01T07:15:52.578Z,941.12
2022-11-01T07:16:53.490Z,941.14
2022-11-01T07:17:53.975Z,941.2
2022-11-01T07:18:54.189Z,941.22
2022-11-01T07:19:55.095Z,941.24
2022-11-01T07:20:56.035Z,941.26
2022-11-01T07:21:56.935Z,941.24
2022-11-01T07:22:57.138Z,941.26
2022-11-01T07:23:57.674Z,941.23
2022-11-01T07:24:57.898Z,941.26
2022-11-01T07:25:58.917Z,941.28
2022-11-01T07:26:59.134Z,941.25
2022-11-01T07:28:00.223Z,941.29
2022-11-01T07:29:00.420Z,941.26
2022-11-01T07:30:01.338Z,941.26
2022-11-01T07:31:01.830Z,941.28
2022-11-01T07:32:02.160Z,941.32
2022-11-01T07:33:02.791Z,941.32
2022-11-01T07:34:02.823Z,941.33
2022-11-01T07:35:03.740Z,941.34
2022-11-01T07:36:04.780Z,941.33
2022-11-01T07:37:05.393Z,941.35
2022-11-01T07:38:08.144Z,941.34
2022-11-01T07:39:06.695Z,941.39
2022-11-01T07:40:06.967Z,941.41
2022-11-01T07:41:07.173Z,941.43
2022-11-01T07:42:07.812Z,941.4
2022-11-01T07:43:08.430Z,941.42
2022-11-01T07:44:09.347Z,941.44
2022-11-01T07:45:12.908Z,941.47
2022-11-01T07:46:10.527Z,941.47
2022-11-01T07:47:10.742Z,941.54
2022-11-01T07:48:11.233Z,941.53
2022-11-01T07:49:11.448Z,941.57
2022-11-01T07:50:12.078Z,941.54
2022-11-01T07:51:12.591Z,941.6
2022-11-01T07:52:13.496Z,941.58
2022-11-01T07:53:13.713Z,941.53
2022-11-01T07:54:13.930Z,941.54
2022-11-01T07:55:14.232Z,941.5
2022-11-01T07:56:14.594Z,941.49
2022-11-01T07:57:15.487Z,941.54
2022-11-01T07:58:16.104Z,941.52
2022-11-01T07:59:16.698Z,941.57
2022-11-01T08:00:16.918Z,941.57
2022-11-01T08:01:17.683Z,941.6
2022-11-01T08:02:18.049Z,941.6
2022-11-01T08:03:18.867Z,941.59
2022-11-01T08:04:19.797Z,941.6
2022-11-01T08:05:20.028Z,941.61
2022-11-01T08:07:20.957Z,941.65
2022-11-01T08:08:21.587Z,941.66
2022-11-01T08:09:22.204Z,941.68
2022-11-01T08:10:22.404Z,941.64
2022-11-01T08:11:22.624Z,941.66
2022-11-01T08:12:23.517Z,941.6
2022-11-01T08:13:23.725Z,941.54
2022-11-01T08:14:24.619Z,941.57
2022-11-01T08:15:25.540Z,941.52
2022-11-01T08:16:26.261Z,941.55
2022-11-01T08:17:26.881Z,941.59
2022-11-01T08:18:27.772Z,941.58
2022-11-01T08:19:28.272Z,941.58
2022-11-01T08:20:29.185Z,941.54
2022-11-01T08:21:30.125Z,941.53
2022-11-01T08:22:30.307Z,941.52
2022-11-01T08:23:30.777Z,941.54
2022-11-01T08:24:30.984Z,941.51
2022-11-01T08:25:31.188Z,941.5
2022-11-01T08:26:32.231Z,941.53
2022-11-01T08:27:34.366Z,941.52
2022-11-01T08:28:32.817Z,941.53
2022-11-01T08:29:33.442Z,941.57
2022-11-01T08:30:33.766Z,941.48
2022-11-01T08:31:33.975Z,941.56
2022-11-01T08:32:34.899Z,941.58
2022-11-01T08:33:35.816Z,941.61
2022-11-01T08:34:36.009Z,941.62
2022-11-01T08:35:36.951Z,941.62
2022-11-01T08:36:37.283Z,941.68
2022-11-01T08:37:37.761Z,941.65
2022-11-01T08:38:37.981Z,941.65
2022-11-01T08:39:38.514Z,941.63
2022-11-01T08:40:39.428Z,941.66
2022-11-01T08:41:40.385Z,941.64
2022-11-01T08:42:41.314Z,941.6
2022-11-01T08:43:41.546Z,941.61
2022-11-01T08:44:41.898Z,941.59
2022-11-01T08:45:42.821Z,941.63
2022-11-01T08:46:43.826Z,941.62
2022-11-01T08:47:44.318Z,941.67
2022-11-01T08:48:44.553Z,941.71
2022-11-01T08:49:44.933Z,941.66
2022-11-01T08:50:45.834Z,941.62
2022-11-01T08:51:46.776Z,941.67
2022-11-01T08:52:46.954Z,941.68
2022-11-01T08:53:47.413Z,941.67
2022-11-01T08:54:48.050Z,941.71
2022-11-01T08:56:49.338Z,941.76
2022-11-01T08:57:49.655Z,941.76
2022-11-01T08:58:50.255Z,941.79
2022-11-01T08:59:50.747Z,941.81
2022-11-01T09:00:51.697Z,941.79
2022-11-01T09:01:52.141Z,941.74
2022-11-01T09:02:52.967Z,941.69
2022-11-01T09:03:53.885Z,941.67
2022-11-01T09:04:54.801Z,941.63
2022-11-01T09:05:55.727Z,941.66
2022-11-01T09:06:56.467Z,941.67
2022-11-01T09:07:56.949Z,941.68
2022-11-01T09:08:57.702Z,941.71
2022-11-01T09:09:58.664Z,941.66
2022-11-01T09:10:59.576Z,941.72
2022-11-01T09:11:59.803Z,941.78
2022-11-01T09:13:01.147Z,941.77
2022-11-01T09:14:01.434Z,941.74
2022-11-01T09:15:02.339Z,941.75
2022-11-01T09:16:03.236Z,941.76
2022-11-01T09:17:04.008Z,941.7
2022-11-01T09:18:04.348Z,941.7
2022-11-01T09:19:04.567Z,941.67
2022-11-01T09:20:05.506Z,941.68
2022-11-01T09:21:06.409Z,941.7
2022-11-01T09:22:07.116Z,941.73
2022-11-01T09:23:07.336Z,941.67
2022-11-01T09:24:07.570Z,941.7
2022-11-01T09:25:07.785Z,941.69
2022-11-01T09:26:08.419Z,941.69
2022-11-01T09:27:08.717Z,941.64
2022-11-01T09:28:09.658Z,941.68
2022-11-01T09:29:10.706Z,941.68
2022-11-01T09:30:11.767Z,941.64
2022-11-01T09:31:19.702Z,941.66
2022-11-01T09:32:12.501Z,941.7
2022-11-01T09:33:12.695Z,941.76
2022-11-01T09:34:13.612Z,941.74
2022-11-01T09:35:13.806Z,941.78
2022-11-01T09:36:14.147Z,941.79
2022-11-01T09:37:15.226Z,941.77
2022-11-01T09:38:15.403Z,941.81
2022-11-01T09:39:16.339Z,941.79
2022-11-01T09:40:16.568Z,941.8
2022-11-01T09:41:16.711Z,941.82
2022-11-01T09:42:17.231Z,941.81
2022-11-01T09:43:17.427Z,941.82
2022-11-01T09:44:18.040Z,941.79
2022-11-01T09:45:18.253Z,941.83
2022-11-01T09:46:19.202Z,941.81
2022-11-01T09:47:20.215Z,941.81
2022-11-01T09:48:20.863Z,941.8
2022-11-01T09:49:21.479Z,941.76
2022-11-01T09:50:21.842Z,941.79
2022-11-01T09:51:22.815Z,941.78
2022-11-01T09:52:23.757Z,941.82
2022-11-01T09:53:24.653Z,941.81
2022-11-01T09:54:24.872Z,941.78
2022-11-01T09:55:25.799Z,941.76
2022-11-01T09:56:29.047Z,941.74
2022-11-01T09:57:26.674Z,941.77
2022-11-01T09:58:26.860Z,941.76
2022-11-01T09:59:27.347Z,941.75
2022-11-01T10:00:27.563Z,941.76
2022-11-01T10:01:28.301Z,941.74
2022-11-01T10:02:28.864Z,941.74
2022-11-01T10:03:29.781Z,941.7
2022-11-01T10:04:30.002Z,941.74
2022-11-01T10:05:30.201Z,941.76
2022-11-01T10:06:30.701Z,941.75
2022-11-01T10:07:31.429Z,941.71
2022-11-01T10:08:31.908Z,941.76
2022-11-01T10:09:32.119Z,941.74
2022-11-01T10:10:34.160Z,941.72
2022-11-01T10:11:33.419Z,941.75
2022-11-01T10:12:33.650Z,941.75
2022-11-01T10:13:33.843Z,941.74
2022-11-01T10:14:34.764Z,941.73
2022-11-01T10:15:35.259Z,941.7
2022-11-01T10:16:35.877Z,941.74
2022-11-01T10:17:36.608Z,941.72
2022-11-01T10:18:37.647Z,941.77
2022-11-01T10:19:37.868Z,941.73
2022-11-01T10:20:38.189Z,941.75
2022-11-01T10:21:39.181Z,941.71
2022-11-01T10:22:39.422Z,941.69
2022-11-01T10:23:39.634Z,941.64
2022-11-01T10:24:39.888Z,941.59
2022-11-01T10:25:40.801Z,941.58
2022-11-01T10:26:41.737Z,941.56
2022-11-01T10:27:42.727Z,941.55
2022-11-01T10:28:43.649Z,941.55
2022-11-01T10:29:43.847Z,941.58
2022-11-01T10:30:44.471Z,941.56
2022-11-01T10:31:45.107Z,941.51
2022-11-01T10:32:46.007Z,941.54
2022-11-01T10:33:46.293Z,941.55
2022-11-01T10:34:47.201Z,941.54
2022-11-01T10:35:47.881Z,941.57
2022-11-01T10:36:48.211Z,941.56
2022-11-01T10:37:57.239Z,941.61
2022-11-01T10:40:02.686Z,941.6
2022-11-01T10:40:59.940Z,941.58
2022-11-01T10:42:00.896Z,941.57
2022-11-01T10:43:01.847Z,941.63
2022-11-01T10:44:02.777Z,941.63
2022-11-01T10:45:02.992Z,941.64
2022-11-01T10:46:03.638Z,941.61
2022-11-01T10:47:03.961Z,941.6
2022-11-01T10:48:04.997Z,941.63
2022-11-01T10:49:05.614Z,941.62
2022-11-01T10:50:07.492Z,941.69
2022-11-01T10:51:06.937Z,941.68
2022-11-01T10:52:07.464Z,941.68
2022-11-01T10:53:07.758Z,941.74
2022-11-01T10:54:08.036Z,941.75
2022-11-01T10:55:08.375Z,941.74
2022-11-01T10:56:08.614Z,941.67
2022-11-01T10:57:09.316Z,941.68
2022-11-01T10:58:09.631Z,941.67
2022-11-01T10:59:10.343Z,941.7
2022-11-01T11:00:10.949Z,941.68
2022-11-01T11:01:12.005Z,941.75
2022-11-01T11:02:12.729Z,941.77
2022-11-01T11:03:13.035Z,941.76
2022-11-01T11:04:13.959Z,941.76
2022-11-01T11:05:14.945Z,941.71
2022-11-01T11:06:15.449Z,941.71
2022-11-01T11:07:18.560Z,941.68
2022-11-01T11:08:16.551Z,941.75
2022-11-01T11:09:16.884Z,941.71
2022-11-01T11:10:18.266Z,941.71
2022-11-01T11:11:17.601Z,941.7
2022-11-01T11:12:18.388Z,941.67
2022-11-01T11:13:18.619Z,941.7
2022-11-01T11:14:19.521Z,941.69
2022-11-01T11:15:20.067Z,941.69
2022-11-01T11:16:20.452Z,941.67
2022-11-01T11:17:20.663Z,941.69
2022-11-01T11:18:21.016Z,941.72
2022-11-01T11:19:21.496Z,941.72
2022-11-01T11:20:22.414Z,941.71
2022-11-01T11:21:27.086Z,941.7
2022-11-01T11:22:23.583Z,941.64
2022-11-01T11:23:24.265Z,941.66
2022-11-01T11:24:25.193Z,941.69
2022-11-01T11:25:25.550Z,941.69
2022-11-01T11:26:26.241Z,941.7
2022-11-01T11:27:27.113Z,941.68
2022-11-01T11:28:28.057Z,941.65
2022-11-01T11:29:28.927Z,941.64
2022-11-01T11:30:29.151Z,941.69
2022-11-01T11:31:30.069Z,941.66
2022-11-01T11:32:30.891Z,941.71
2022-11-01T11:33:31.808Z,941.72
2022-11-01T11:34:32.005Z,941.7
2022-11-01T11:35:32.712Z,941.7
2022-11-01T11:36:32.986Z,941.68
2022-11-01T11:37:33.910Z,941.71
2022-11-01T11:38:34.123Z,941.71
2022-11-01T11:39:35.133Z,941.7
2022-11-01T11:40:36.037Z,941.71
2022-11-01T11:41:36.296Z,941.66
2022-11-01T11:42:37.229Z,941.69
2022-11-01T11:43:37.443Z,941.7
2022-11-01T11:44:37.929Z,941.67
2022-11-01T11:45:38.290Z,941.66
2022-11-01T11:46:38.913Z,941.67
2022-11-01T11:47:39.236Z,941.68
2022-11-01T11:48:39.850Z,941.67
2022-11-01T11:49:40.128Z,941.66
2022-11-01T11:50:41.046Z,941.63
2022-11-01T11:51:41.241Z,941.63
2022-11-01T11:52:42.161Z,941.64
2022-11-01T11:53:43.103Z,941.58
2022-11-01T11:54:43.590Z,941.62
2022-11-01T11:55:44.503Z,941.6
2022-11-01T11:56:45.156Z,941.6
2022-11-01T11:57:46.064Z,941.6
2022-11-01T11:58:46.865Z,941.62
2022-11-01T11:59:47.827Z,941.63
2022-11-01T12:00:48.755Z,941.59
2022-11-01T12:01:49.475Z,941.62
2022-11-01T12:02:49.693Z,941.61
2022-11-01T12:03:50.088Z,941.59
2022-11-01T12:04:50.987Z,941.62
2022-11-01T12:05:51.334Z,941.59
2022-11-01T12:06:51.531Z,941.58
2022-11-01T12:07:52.439Z,941.58
2022-11-01T12:08:53.365Z,941.57
2022-11-01T12:09:54.104Z,941.58
2022-11-01T12:10:55.051Z,941.6
2022-11-01T12:11:55.983Z,941.57
2022-11-01T12:12:56.209Z,941.58
2022-11-01T12:13:56.638Z,941.59
2022-11-01T12:14:56.962Z,941.61
2022-11-01T12:15:57.464Z,941.62
2022-11-01T12:16:58.202Z,941.61
2022-11-01T12:17:58.418Z,941.58
2022-11-01T12:18:59.566Z,941.58
2022-11-01T12:19:59.614Z,941.58
2022-11-01T12:21:00.237Z,941.59
2022-11-01T12:22:01.144Z,941.6
2022-11-01T12:23:02.094Z,941.58
2022-11-01T12:24:02.469Z,941.63
2022-11-01T12:25:03.370Z,941.6
2022-11-01T12:26:04.293Z,941.62
2022-11-01T12:27:05.241Z,941.62
2022-11-01T12:28:05.890Z,941.61
2022-11-01T12:29:05.910Z,941.64
2022-11-01T12:30:06.640Z,941.6
2022-11-01T12:31:07.275Z,941.63
2022-11-01T12:32:08.173Z,941.63
2022-11-01T12:33:09.147Z,941.6
2022-11-01T12:34:09.521Z,941.62
2022-11-01T12:35:10.440Z,941.56
2022-11-01T12:36:11.336Z,941.53
2022-11-01T12:37:11.532Z,941.52
2022-11-01T12:38:11.731Z,941.53
2022-11-01T12:39:12.392Z,941.51
2022-11-01T12:40:12.986Z,941.53
2022-11-01T12:41:13.606Z,941.53
2022-11-01T12:42:14.292Z,941.57
2022-11-01T12:43:15.243Z,941.53
2022-11-01T12:44:15.757Z,941.59